Time;durP1;ratioP1;P1;durP2;ratioP2;P2;SDS_P1;SDS_P2;PMS_P1;PMS_P2;Temp;Humidity;BMP_temperature;BMP_pressure;BME280_temperature;BME280_humidity;BME280_pressure;Samples;Min_cycle;Max_cycle;Signal;HPM_P1;HPM_P2
2022/05/20 00:00:29;;;;;;;;;;;20.60;99.90;;;;;;4984907;28;19906;-81
2022/05/20 00:02:56;;;;;;;;;;;20.60;99.90;;;;;;4985075;28;19941;-82
2022/05/20 00:05:21;;;;;;;;;;;20.60;99.90;;;;;;4984510;28;20022;-82
2022/05/20 00:07:47;;;;;;;;;;;20.50;99.90;;;;;;4985564;28;20210;-82
2022/05/20 00:10:15;;;;;;;;;;;20.40;99.90;;;;;;4985056;28;19906;-82
2022/05/20 00:12:41;;;;;;;;;;;20.40;99.90;;;;;;4984792;28;19906;-82
2022/05/20 00:15:07;;;;;;;;;;;20.30;99.90;;;;;;4967496;28;20280;-82
2022/05/20 00:17:33;;;;;;;;;;;20.30;99.90;;;;;;4983883;28;19981;-82
2022/05/20 00:19:59;;;;;;;;;;;20.20;99.90;;;;;;4983881;28;20187;-82
2022/05/20 00:22:25;;;;;;;;;;;20.20;99.90;;;;;;4984848;28;19906;-81
2022/05/20 00:27:34;;;;;;;;;;;20.10;99.90;;;;;;4985057;28;19914;-81
2022/05/20 00:30:00;;;;;;;;;;;20.10;99.90;;;;;;4984088;28;20153;-82
2022/05/20 00:32:25;;;;;;;;;;;20.00;99.90;;;;;;4984347;28;19906;-81
2022/05/20 00:34:51;;;;;;;;;;;19.90;99.90;;;;;;4983866;28;19913;-82
2022/05/20 00:37:16;;;;;;;;;;;19.90;99.90;;;;;;4967221;28;20253;-81
2022/05/20 00:39:42;;;;;;;;;;;19.80;99.90;;;;;;4984959;28;19918;-82
2022/05/20 00:42:13;;;;;;;;;;;19.80;99.90;;;;;;4985011;28;19913;-81
2022/05/20 00:44:38;;;;;;;;;;;19.80;99.90;;;;;;4984632;28;19906;-81
2022/05/20 00:47:04;;;;;;;;;;;19.80;99.90;;;;;;4984672;28;19946;-82
2022/05/20 00:49:30;;;;;;;;;;;19.80;99.90;;;;;;4985182;28;19950;-81
2022/05/20 00:51:57;;;;;;;;;;;19.80;99.90;;;;;;4984779;28;19952;-81
2022/05/20 00:54:33;;;;;;;;;;;19.80;99.90;;;;;;4983957;28;19953;-82
2022/05/20 00:57:13;;;;;;;;;;;19.80;99.90;;;;;;4984756;28;19914;-81
2022/05/20 00:59:40;;;;;;;;;;;19.80;99.90;;;;;;4984562;28;19906;-81
2022/05/20 01:02:08;;;;;;;;;;;19.80;99.90;;;;;;4984465;28;19907;-81
2022/05/20 01:04:34;;;;;;;;;;;19.80;99.90;;;;;;4983880;28;19906;-81
2022/05/20 01:06:59;;;;;;;;;;;19.90;99.90;;;;;;4967735;28;19937;-81
2022/05/20 01:09:25;;;;;;;;;;;19.90;99.90;;;;;;4987119;28;19906;-81
2022/05/20 01:11:51;;;;;;;;;;;20.00;99.90;;;;;;4987854;28;19906;-81
2022/05/20 01:14:21;;;;;;;;;;;20.00;99.90;;;;;;4986885;28;19906;-81
2022/05/20 01:16:46;;;;;;;;;;;20.10;99.90;;;;;;4988267;28;19949;-82
2022/05/20 01:19:20;;;;;;;;;;;20.10;99.90;;;;;;4987782;28;19977;-81
2022/05/20 01:21:46;;;;;;;;;;;20.10;99.90;;;;;;4983262;28;19929;-82
2022/05/20 01:24:11;;;;;;;;;;;20.10;99.90;;;;;;4986795;28;20094;-81
2022/05/20 01:26:37;;;;;;;;;;;20.10;99.90;;;;;;4987867;28;19906;-81
2022/05/20 01:29:02;;;;;;;;;;;20.10;99.90;;;;;;4987779;28;19914;-82
2022/05/20 01:31:28;;;;;;;;;;;20.10;99.90;;;;;;4986775;28;19973;-81
2022/05/20 01:33:53;;;;;;;;;;;20.10;99.90;;;;;;4986228;28;19921;-81
2022/05/20 01:36:21;;;;;;;;;;;20.10;99.90;;;;;;4987698;28;19932;-81
2022/05/20 01:38:47;;;;;;;;;;;20.10;99.90;;;;;;4986864;28;20246;-81
2022/05/20 01:41:19;;;;;;;;;;;20.10;99.90;;;;;;4986670;28;19914;-81
2022/05/20 01:43:50;;;;;;;;;;;20.10;99.90;;;;;;4987009;28;19953;-82
2022/05/20 01:46:18;;;;;;;;;;;20.10;99.90;;;;;;4987847;28;19946;-82
2022/05/20 01:48:50;;;;;;;;;;;20.00;99.90;;;;;;4987181;28;19906;-82
2022/05/20 01:51:18;;;;;;;;;;;20.00;99.90;;;;;;4987045;28;19906;-81
2022/05/20 01:53:52;;;;;;;;;;;20.00;99.90;;;;;;4986696;28;19907;-82
2022/05/20 01:56:36;;;;;;;;;;;20.00;99.90;;;;;;4986878;28;19906;-81
2022/05/20 01:59:02;;;;;;;;;;;20.00;99.90;;;;;;4987588;28;19945;-81
2022/05/20 02:01:32;;;;;;;;;;;20.00;99.90;;;;;;4987606;28;20127;-81
2022/05/20 02:04:01;;;;;;;;;;;19.90;99.90;;;;;;4985877;28;19914;-81
2022/05/20 02:06:29;;;;;;;;;;;19.90;99.90;;;;;;4986867;28;21208;-81
2022/05/20 02:08:55;;;;;;;;;;;19.90;99.90;;;;;;4987113;28;19949;-81
2022/05/20 02:11:41;;;;;;;;;;;19.80;99.90;;;;;;4987112;28;19965;-81
2022/05/20 02:14:16;;;;;;;;;;;19.80;99.90;;;;;;4986950;28;20098;-81
2022/05/20 02:16:44;;;;;;;;;;;19.80;99.90;;;;;;4986909;28;20109;-81
2022/05/20 02:19:25;;;;;;;;;;;19.80;99.90;;;;;;4986130;28;19906;-81
2022/05/20 02:21:53;;;;;;;;;;;19.70;99.90;;;;;;4986628;28;20130;-81
2022/05/20 02:24:20;;;;;;;;;;;19.70;99.90;;;;;;4986677;28;19906;-81
2022/05/20 02:26:51;;;;;;;;;;;19.80;99.90;;;;;;4986988;28;19945;-81
2022/05/20 02:29:18;;;;;;;;;;;19.70;99.90;;;;;;4986905;28;20120;-81
2022/05/20 02:31:47;;;;;;;;;;;19.70;99.90;;;;;;4986574;28;19936;-81
2022/05/20 02:34:12;;;;;;;;;;;19.60;99.90;;;;;;4986724;28;20138;-82
2022/05/20 02:36:40;;;;;;;;;;;19.60;99.90;;;;;;4986644;28;19914;-81
2022/05/20 02:39:15;;;;;;;;;;;19.60;99.90;;;;;;4985970;28;19981;-82
2022/05/20 02:41:47;;;;;;;;;;;19.60;99.90;;;;;;4986475;28;19953;-81
2022/05/20 02:44:13;;;;;;;;;;;19.60;99.90;;;;;;4986651;28;19906;-82
2022/05/20 02:46:39;;;;;;;;;;;19.60;99.90;;;;;;4985264;28;19912;-81
2022/05/20 02:49:05;;;;;;;;;;;19.60;99.90;;;;;;4984682;28;19913;-81
2022/05/20 02:51:31;;;;;;;;;;;19.50;99.90;;;;;;4986500;28;19906;-81
2022/05/20 02:53:56;;;;;;;;;;;19.50;99.90;;;;;;4986024;28;20346;-82
2022/05/20 02:56:22;;;;;;;;;;;19.60;99.90;;;;;;4984598;28;20190;-81
2022/05/20 03:04:16;;;;;;;;;;;19.50;99.90;;;;;;4985885;28;19929;-81
2022/05/20 03:06:42;;;;;;;;;;;19.50;99.90;;;;;;4986248;28;19910;-82
2022/05/20 03:09:08;;;;;;;;;;;19.50;99.90;;;;;;4985691;28;19906;-82
2022/05/20 03:11:34;;;;;;;;;;;19.50;99.90;;;;;;4985697;28;19918;-81
2022/05/20 03:14:04;;;;;;;;;;;19.50;99.90;;;;;;4985868;28;19906;-81
2022/05/20 03:16:30;;;;;;;;;;;19.50;99.90;;;;;;4986517;28;19921;-81
2022/05/20 03:18:55;;;;;;;;;;;19.50;99.90;;;;;;4985749;28;19910;-81
2022/05/20 03:21:21;;;;;;;;;;;19.40;99.90;;;;;;4985451;28;20161;-81
2022/05/20 03:23:46;;;;;;;;;;;19.40;99.90;;;;;;4985333;28;19953;-81
2022/05/20 03:26:12;;;;;;;;;;;19.30;99.90;;;;;;4985690;28;19982;-81
2022/05/20 03:28:39;;;;;;;;;;;19.30;99.90;;;;;;4985106;28;19907;-82
2022/05/20 03:31:09;;;;;;;;;;;19.30;99.90;;;;;;4984434;28;20277;-82
2022/05/20 03:33:35;;;;;;;;;;;19.30;99.90;;;;;;4985203;28;19965;-81
2022/05/20 03:36:00;;;;;;;;;;;19.40;99.90;;;;;;4985345;28;19973;-81
2022/05/20 03:38:26;;;;;;;;;;;19.40;99.90;;;;;;4985653;28;20146;-81
2022/05/20 03:40:52;;;;;;;;;;;19.40;99.90;;;;;;4985614;28;19918;-81
2022/05/20 03:43:17;;;;;;;;;;;19.40;99.90;;;;;;4985753;28;20241;-81
2022/05/20 03:45:43;;;;;;;;;;;19.40;99.90;;;;;;4985749;28;19906;-81
2022/05/20 03:48:09;;;;;;;;;;;19.40;99.90;;;;;;4984210;28;20105;-81
2022/05/20 03:50:34;;;;;;;;;;;19.40;99.90;;;;;;4985041;28;19910;-81
2022/05/20 03:53:00;;;;;;;;;;;19.40;99.90;;;;;;4983957;28;19969;-82
2022/05/20 03:55:26;;;;;;;;;;;19.40;99.90;;;;;;4968253;28;19969;-81
2022/05/20 03:57:51;;;;;;;;;;;19.50;99.90;;;;;;4985577;28;20149;-83
2022/05/20 04:00:17;;;;;;;;;;;19.50;99.90;;;;;;4985832;28;19913;-83
2022/05/20 04:02:43;;;;;;;;;;;19.50;99.90;;;;;;4985428;28;19906;-83
2022/05/20 04:05:08;;;;;;;;;;;19.50;99.90;;;;;;4984459;28;19906;-82
2022/05/20 04:07:34;;;;;;;;;;;19.50;99.90;;;;;;4985392;28;20190;-83
2022/05/20 04:10:00;;;;;;;;;;;19.60;99.90;;;;;;4978667;28;20370;-83
2022/05/20 04:12:28;;;;;;;;;;;19.60;99.90;;;;;;4974694;28;19930;-82
2022/05/20 04:14:55;;;;;;;;;;;19.60;99.90;;;;;;4976973;28;20368;-82
2022/05/20 04:17:21;;;;;;;;;;;19.60;99.90;;;;;;4974754;28;19918;-83
2022/05/20 04:19:46;;;;;;;;;;;19.60;99.90;;;;;;4974660;28;20433;-82
2022/05/20 04:22:13;;;;;;;;;;;19.60;99.90;;;;;;4974792;28;20018;-83
2022/05/20 04:24:39;;;;;;;;;;;19.60;99.90;;;;;;4974740;28;20378;-83
2022/05/20 04:27:04;;;;;;;;;;;19.70;99.90;;;;;;4974591;28;20001;-83
2022/05/20 04:29:30;;;;;;;;;;;19.70;99.90;;;;;;4977781;28;19906;-83
2022/05/20 04:31:56;;;;;;;;;;;19.60;99.90;;;;;;4984854;28;19929;-83
2022/05/20 04:34:22;;;;;;;;;;;19.50;99.90;;;;;;4984582;28;20106;-83
2022/05/20 04:36:48;;;;;;;;;;;19.50;99.90;;;;;;4985032;28;19914;-83
2022/05/20 04:39:14;;;;;;;;;;;19.50;99.90;;;;;;4983898;28;19981;-83
2022/05/20 04:47:10;;;;;;;;;;;19.50;99.90;;;;;;4987616;28;19913;-83
2022/05/20 04:49:38;;;;;;;;;;;19.50;99.90;;;;;;4988093;28;19930;-83
2022/05/20 04:52:04;;;;;;;;;;;19.60;99.90;;;;;;4988152;28;19907;-83
2022/05/20 04:57:25;;;;;;;;;;;19.70;99.90;;;;;;4988872;28;19929;-82
2022/05/20 04:59:52;;;;;;;;;;;19.70;99.90;;;;;;4988447;28;19965;-81
2022/05/20 05:02:18;;;;;;;;;;;19.70;99.90;;;;;;4988125;28;19981;-82
2022/05/20 05:04:43;;;;;;;;;;;19.80;99.90;;;;;;4988334;28;19913;-83
2022/05/20 05:07:11;;;;;;;;;;;19.90;99.90;;;;;;4988104;28;19938;-83
2022/05/20 05:09:38;;;;;;;;;;;19.90;99.90;;;;;;4987866;28;19972;-82
2022/05/20 05:12:04;;;;;;;;;;;20.00;99.90;;;;;;4988048;28;19906;-83
2022/05/20 05:14:34;;;;;;;;;;;20.10;99.90;;;;;;4986706;28;19910;-83
2022/05/20 05:17:00;;;;;;;;;;;20.10;99.90;;;;;;4969649;28;19985;-83
2022/05/20 05:19:25;;;;;;;;;;;20.20;99.90;;;;;;4987036;28;19910;-83
2022/05/20 05:21:51;;;;;;;;;;;20.20;99.90;;;;;;4987411;28;19913;-83
2022/05/20 05:24:16;;;;;;;;;;;20.30;99.90;;;;;;4987330;28;19915;-83
2022/05/20 05:26:42;;;;;;;;;;;20.20;99.90;;;;;;4987251;28;19917;-82
2022/05/20 05:29:07;;;;;;;;;;;20.20;99.90;;;;;;4979700;28;19917;-83
2022/05/20 05:31:33;;;;;;;;;;;20.20;99.90;;;;;;4977325;28;19917;-82
2022/05/20 05:33:59;;;;;;;;;;;20.30;99.90;;;;;;4977221;28;19956;-82
2022/05/20 05:36:25;;;;;;;;;;;20.30;99.90;;;;;;4977227;28;19957;-84
2022/05/20 05:38:51;;;;;;;;;;;20.20;99.90;;;;;;4975798;28;19965;-83
2022/05/20 05:41:18;;;;;;;;;;;20.30;99.90;;;;;;4977157;28;19914;-83
2022/05/20 05:43:43;;;;;;;;;;;20.40;99.90;;;;;;4976914;28;19993;-83
2022/05/20 05:46:09;;;;;;;;;;;20.40;99.90;;;;;;4977031;28;19985;-84
2022/05/20 05:48:35;;;;;;;;;;;20.40;99.90;;;;;;4977810;28;19910;-83
2022/05/20 05:51:01;;;;;;;;;;;20.40;99.90;;;;;;4985949;28;19906;-82
2022/05/20 05:53:27;;;;;;;;;;;20.50;99.90;;;;;;4979547;28;19910;-80
2022/05/20 05:55:59;;;;;;;;;;;20.50;99.90;;;;;;4977061;28;19965;-81
2022/05/20 05:58:25;;;;;;;;;;;20.50;99.90;;;;;;4959739;28;19924;-80
2022/05/20 06:00:51;;;;;;;;;;;20.50;99.90;;;;;;4976784;28;20286;-80
2022/05/20 06:03:17;;;;;;;;;;;20.50;99.90;;;;;;4976561;28;20001;-81
2022/05/20 06:05:43;;;;;;;;;;;20.50;99.90;;;;;;4977065;28;19914;-81
2022/05/20 06:08:08;;;;;;;;;;;20.50;99.90;;;;;;4976725;28;19910;-81
2022/05/20 06:10:34;;;;;;;;;;;20.50;99.90;;;;;;4976965;28;19925;-84
2022/05/20 06:13:00;;;;;;;;;;;20.50;99.90;;;;;;4977130;28;19921;-81
2022/05/20 06:15:29;;;;;;;;;;;20.50;99.90;;;;;;4976558;28;19962;-81
2022/05/20 06:17:56;;;;;;;;;;;20.60;99.90;;;;;;4976681;28;20432;-81
2022/05/20 06:20:22;;;;;;;;;;;20.50;99.90;;;;;;4976343;28;19910;-81
2022/05/20 06:22:48;;;;;;;;;;;20.50;99.90;;;;;;4976522;28;19918;-81
2022/05/20 06:25:13;;;;;;;;;;;20.50;99.90;;;;;;4976373;28;19910;-81
2022/05/20 06:27:39;;;;;;;;;;;20.50;99.90;;;;;;4976470;28;19910;-81
2022/05/20 06:30:08;;;;;;;;;;;20.50;99.90;;;;;;4976460;28;19993;-81
2022/05/20 06:32:34;;;;;;;;;;;20.50;99.90;;;;;;4976442;28;19917;-80
2022/05/20 06:40:40;;;;;;;;;;;20.60;99.90;;;;;;4977580;28;19929;-84
2022/05/20 06:43:05;;;;;;;;;;;20.60;99.90;;;;;;4958580;28;19953;-82
2022/05/20 06:45:31;;;;;;;;;;;20.70;99.90;;;;;;4974789;28;19985;-82
2022/05/20 06:47:58;;;;;;;;;;;20.80;99.90;;;;;;4975943;28;19949;-82
2022/05/20 06:50:24;;;;;;;;;;;20.90;99.90;;;;;;4976076;28;19911;-81
2022/05/20 06:52:49;;;;;;;;;;;20.90;99.90;;;;;;4976900;28;19921;-82
2022/05/20 06:55:15;;;;;;;;;;;20.90;99.90;;;;;;4974718;28;20353;-81
2022/05/20 06:57:40;;;;;;;;;;;20.90;99.90;;;;;;4975760;28;19925;-81
2022/05/20 07:00:07;;;;;;;;;;;20.90;99.90;;;;;;4974506;28;19932;-81
2022/05/20 07:02:33;;;;;;;;;;;20.90;99.90;;;;;;4975838;28;19910;-80
2022/05/20 07:05:03;;;;;;;;;;;20.90;99.90;;;;;;4981016;28;19977;-81
2022/05/20 07:07:29;;;;;;;;;;;20.80;99.90;;;;;;4980855;28;19917;-81
2022/05/20 07:09:54;;;;;;;;;;;20.80;99.90;;;;;;4976858;28;19910;-83
2022/05/20 07:12:20;;;;;;;;;;;20.80;99.90;;;;;;4985377;28;20102;-81
2022/05/20 07:14:45;;;;;;;;;;;20.80;99.90;;;;;;4983538;28;19910;-81
2022/05/20 07:17:17;;;;;;;;;;;20.80;99.90;;;;;;4978226;28;19918;-81
2022/05/20 07:19:43;;;;;;;;;;;20.70;99.90;;;;;;4976490;28;19917;-81
2022/05/20 07:22:09;;;;;;;;;;;20.70;99.90;;;;;;4976293;28;19910;-81
2022/05/20 07:24:35;;;;;;;;;;;20.80;99.90;;;;;;4978248;28;19956;-81
2022/05/20 07:27:00;;;;;;;;;;;20.80;99.90;;;;;;4982715;28;19945;-81
2022/05/20 07:29:26;;;;;;;;;;;20.80;99.90;;;;;;4978607;28;19969;-82
2022/05/20 07:31:51;;;;;;;;;;;20.80;99.90;;;;;;4977712;28;19972;-81
2022/05/20 07:34:17;;;;;;;;;;;20.90;99.90;;;;;;4978428;28;19907;-80
2022/05/20 07:36:42;;;;;;;;;;;20.90;99.90;;;;;;4980984;28;20354;-81
2022/05/20 07:39:08;;;;;;;;;;;20.90;99.90;;;;;;4984713;28;19919;-81
2022/05/20 07:41:35;;;;;;;;;;;21.00;99.90;;;;;;4985548;28;19912;-80
2022/05/20 07:44:01;;;;;;;;;;;21.30;99.90;;;;;;4983416;28;19913;-81
2022/05/20 07:46:26;;;;;;;;;;;21.40;99.90;;;;;;4975928;28;19914;-82
2022/05/20 07:48:52;;;;;;;;;;;21.40;99.90;;;;;;4975054;28;19953;-81
2022/05/20 07:51:19;;;;;;;;;;;21.30;99.90;;;;;;4975364;28;19934;-82
2022/05/20 07:53:50;;;;;;;;;;;21.20;99.90;;;;;;4957469;28;19957;-81
2022/05/20 07:56:16;;;;;;;;;;;21.20;99.90;;;;;;4978034;28;19949;-82
2022/05/20 07:58:48;;;;;;;;;;;21.10;99.90;;;;;;4977922;28;19911;-81
2022/05/20 08:01:15;;;;;;;;;;;21.00;99.90;;;;;;4976028;28;19925;-81
2022/05/20 08:06:25;;;;;;;;;;;21.00;99.90;;;;;;4977651;28;19956;-82
2022/05/20 08:08:52;;;;;;;;;;;20.90;99.90;;;;;;4976910;28;19965;-82
2022/05/20 08:11:18;;;;;;;;;;;21.00;99.90;;;;;;4980467;28;19913;-82
2022/05/20 08:13:43;;;;;;;;;;;20.90;99.90;;;;;;4979442;28;19914;-81
2022/05/20 08:16:09;;;;;;;;;;;20.90;99.90;;;;;;4975268;28;19933;-81
2022/05/20 08:18:34;;;;;;;;;;;21.10;99.90;;;;;;4980030;28;20678;-81
2022/05/20 08:21:00;;;;;;;;;;;20.90;99.90;;;;;;4978969;28;19910;-82
2022/05/20 08:23:26;;;;;;;;;;;20.90;99.90;;;;;;4979200;28;20009;-82
2022/05/20 08:25:52;;;;;;;;;;;21.00;99.90;;;;;;4979050;28;19932;-81
2022/05/20 08:28:18;;;;;;;;;;;21.10;99.90;;;;;;4981116;28;20420;-82
2022/05/20 08:30:44;;;;;;;;;;;21.10;99.90;;;;;;4979888;28;20374;-82
2022/05/20 08:33:10;;;;;;;;;;;21.20;99.90;;;;;;4983180;28;19910;-81
2022/05/20 08:35:35;;;;;;;;;;;21.10;99.90;;;;;;4979213;28;19917;-82
2022/05/20 08:38:03;;;;;;;;;;;21.10;99.90;;;;;;4980760;28;19918;-82
2022/05/20 08:40:34;;;;;;;;;;;21.30;99.90;;;;;;4980181;28;20362;-81
2022/05/20 08:43:01;;;;;;;;;;;21.40;99.90;;;;;;4979765;28;19914;-82
2022/05/20 08:45:28;;;;;;;;;;;21.40;99.90;;;;;;4981869;28;19976;-82
2022/05/20 08:47:53;;;;;;;;;;;21.40;99.90;;;;;;4979199;28;19910;-82
2022/05/20 08:50:21;;;;;;;;;;;21.50;99.90;;;;;;4980646;28;19965;-83
2022/05/20 08:52:49;;;;;;;;;;;21.60;99.90;;;;;;4978867;28;19910;-81
2022/05/20 08:55:14;;;;;;;;;;;21.60;99.90;;;;;;4980727;28;19911;-81
2022/05/20 08:57:44;;;;;;;;;;;21.50;99.90;;;;;;4961398;28;20290;-81
2022/05/20 09:00:11;;;;;;;;;;;21.60;99.90;;;;;;4978167;28;20217;-81
2022/05/20 09:02:37;;;;;;;;;;;21.60;99.90;;;;;;4978151;28;19918;-81
2022/05/20 09:05:17;;;;;;;;;;;21.70;99.90;;;;;;4978165;28;19910;-81
2022/05/20 09:07:57;;;;;;;;;;;21.50;99.90;;;;;;4977801;28;19932;-82
2022/05/20 09:10:30;;;;;;;;;;;21.40;99.90;;;;;;4978183;28;19910;-81
2022/05/20 09:13:04;;;;;;;;;;;21.40;99.90;;;;;;4979667;28;20011;-82
2022/05/20 09:15:46;;;;;;;;;;;21.50;99.90;;;;;;4977994;28;19960;-81
2022/05/20 09:18:11;;;;;;;;;;;21.70;99.90;;;;;;4977591;28;20438;-81
2022/05/20 09:20:48;;;;;;;;;;;21.50;99.90;;;;;;4977822;28;19956;-81
2022/05/20 09:23:15;;;;;;;;;;;21.60;99.90;;;;;;4977646;28;19926;-82
2022/05/20 09:26:07;;;;;;;;;;;21.50;99.90;;;;;;4977509;28;19976;-83
2022/05/20 09:28:40;;;;;;;;;;;21.40;99.90;;;;;;4957530;28;19910;-84
2022/05/20 09:31:13;;;;;;;;;;;21.20;99.90;;;;;;4977421;28;19911;-81
2022/05/20 09:33:39;;;;;;;;;;;21.30;99.90;;;;;;4979153;28;20322;-81
2022/05/20 09:36:05;;;;;;;;;;;21.40;99.90;;;;;;4977327;28;20009;-80
2022/05/20 09:38:35;;;;;;;;;;;21.50;99.90;;;;;;4977095;28;20020;-81
2022/05/20 09:41:12;;;;;;;;;;;21.60;99.90;;;;;;4979349;28;19914;-84
2022/05/20 09:43:40;;;;;;;;;;;21.30;99.90;;;;;;4980127;28;19906;-84
2022/05/20 09:46:13;;;;;;;;;;;21.30;99.90;;;;;;4977192;28;19910;-84
2022/05/20 09:48:55;;;;;;;;;;;21.30;99.90;;;;;;4977175;28;19911;-84
2022/05/20 09:51:24;;;;;;;;;;;21.10;99.90;;;;;;4959808;28;19914;-84
2022/05/20 09:54:13;;;;;;;;;;;21.20;99.90;;;;;;4977163;28;19910;-84
2022/05/20 09:56:44;;;;;;;;;;;21.30;99.90;;;;;;4976800;28;19918;-84
2022/05/20 09:59:25;;;;;;;;;;;21.50;99.90;;;;;;4976947;28;19910;-84
2022/05/20 10:02:03;;;;;;;;;;;21.60;99.90;;;;;;4976643;28;20371;-84
2022/05/20 10:04:39;;;;;;;;;;;21.50;99.90;;;;;;4977073;28;19910;-84
2022/05/20 10:07:10;;;;;;;;;;;21.70;99.90;;;;;;4975625;28;19942;-84
2022/05/20 10:09:54;;;;;;;;;;;21.80;99.90;;;;;;4976876;28;19910;-84
2022/05/20 10:12:23;;;;;;;;;;;21.80;99.90;;;;;;4976684;28;19921;-84
2022/05/20 10:15:12;;;;;;;;;;;22.20;99.90;;;;;;4976901;28;19910;-84
2022/05/20 10:17:44;;;;;;;;;;;22.10;99.90;;;;;;4991298;28;20309;-84
2022/05/20 10:20:12;;;;;;;;;;;22.20;99.90;;;;;;4976546;28;20329;-84
2022/05/20 10:22:41;;;;;;;;;;;22.40;99.90;;;;;;4976722;28;20004;-85
2022/05/20 10:25:16;;;;;;;;;;;22.70;99.90;;;;;;4976466;28;19910;-85
2022/05/20 10:27:48;;;;;;;;;;;22.60;99.90;;;;;;4976685;28;19945;-84
2022/05/20 10:33:13;;;;;;;;;;;22.30;99.90;;;;;;4976461;28;19917;-84
2022/05/20 10:35:53;;;;;;;;;;;22.40;99.90;;;;;;4976266;28;20422;-85
2022/05/20 10:38:32;;;;;;;;;;;22.10;99.90;;;;;;4976517;28;19918;-84
2022/05/20 10:41:01;;;;;;;;;;;21.80;99.90;;;;;;4983588;28;20212;-85
2022/05/20 10:49:37;;;;;;;;;;;21.40;99.90;;;;;;4985165;28;20212;-84
2022/05/20 10:52:22;;;;;;;;;;;21.60;99.90;;;;;;4985832;28;19906;-85
2022/05/20 10:54:48;;;;;;;;;;;21.60;99.90;;;;;;4985475;28;20186;-84
2022/05/20 10:57:19;;;;;;;;;;;21.40;99.90;;;;;;4985219;28;19914;-84
2022/05/20 10:59:48;;;;;;;;;;;21.60;99.90;;;;;;4984081;28;19906;-84
2022/05/20 11:02:19;;;;;;;;;;;21.80;99.90;;;;;;4986044;28;19906;-85
2022/05/20 11:04:47;;;;;;;;;;;21.80;99.90;;;;;;4985700;28;19906;-85
2022/05/20 11:07:19;;;;;;;;;;;21.70;99.90;;;;;;4985646;28;20266;-84
2022/05/20 11:09:57;;;;;;;;;;;21.90;99.90;;;;;;4984157;28;19956;-85
2022/05/20 11:12:31;;;;;;;;;;;22.00;99.90;;;;;;4985878;28;19906;-84
2022/05/20 11:15:06;;;;;;;;;;;21.60;99.90;;;;;;4985796;28;19906;-84
2022/05/20 11:17:41;;;;;;;;;;;21.40;99.90;;;;;;4984662;28;19969;-83
2022/05/20 11:20:06;;;;;;;;;;;21.50;99.90;;;;;;4985240;28;19913;-85
2022/05/20 11:22:47;;;;;;;;;;;21.80;99.90;;;;;;4985560;28;19906;-85
2022/05/20 11:25:42;;;;;;;;;;;22.00;99.90;;;;;;4985524;28;19906;-84
2022/05/20 11:28:14;;;;;;;;;;;22.20;99.90;;;;;;4984274;28;19977;-83
2022/05/20 11:30:49;;;;;;;;;;;22.60;99.90;;;;;;4985513;28;19910;-84
2022/05/20 11:33:17;;;;;;;;;;;22.90;99.90;;;;;;4985352;28;19913;-84
2022/05/20 11:35:43;;;;;;;;;;;22.90;99.90;;;;;;4982294;28;19910;-83
2022/05/20 11:38:21;;;;;;;;;;;22.90;99.90;;;;;;4975618;28;19918;-82
2022/05/20 11:40:52;;;;;;;;;;;22.90;99.90;;;;;;4975210;28;20039;-82
2022/05/20 11:43:24;;;;;;;;;;;22.90;99.90;;;;;;4975524;28;20366;-84
2022/05/20 11:45:55;;;;;;;;;;;23.00;99.90;;;;;;4975672;28;20082;-83
2022/05/20 11:48:25;;;;;;;;;;;23.30;99.90;;;;;;4975203;28;19981;-82
2022/05/20 11:51:09;;;;;;;;;;;23.60;99.90;;;;;;4974942;28;19911;-83
2022/05/20 11:53:41;;;;;;;;;;;23.60;99.90;;;;;;4976388;28;19910;-83
2022/05/20 11:56:14;;;;;;;;;;;23.40;99.90;;;;;;4974865;28;20005;-83
2022/05/20 11:59:00;;;;;;;;;;;23.50;99.90;;;;;;4976780;28;20009;-80
2022/05/20 12:01:27;;;;;;;;;;;23.60;99.90;;;;;;4981552;28;19917;-80
2022/05/20 12:04:08;;;;;;;;;;;24.00;99.90;;;;;;4977256;28;19906;-80
2022/05/20 12:06:35;;;;;;;;;;;24.20;99.90;;;;;;4980553;28;20248;-80
2022/05/20 12:09:02;;;;;;;;;;;23.90;99.90;;;;;;4976087;28;19989;-80
2022/05/20 12:11:31;;;;;;;;;;;23.80;99.90;;;;;;4977093;28;19913;-80
2022/05/20 12:13:56;;;;;;;;;;;23.70;99.90;;;;;;4976414;28;19918;-80
2022/05/20 12:16:22;;;;;;;;;;;23.80;99.90;;;;;;4975056;28;19910;-80
2022/05/20 12:24:39;;;;;;;;;;;23.60;99.90;;;;;;4975810;28;19917;-80
2022/05/20 12:27:28;;;;;;;;;;;23.60;99.90;;;;;;4959171;28;20378;-80
2022/05/20 12:30:05;;;;;;;;;;;23.80;99.90;;;;;;4969060;28;19910;-80
2022/05/20 12:32:31;;;;;;;;;;;24.00;99.90;;;;;;4974746;28;19910;-80
2022/05/20 12:35:15;;;;;;;;;;;24.00;99.90;;;;;;4974615;28;19911;-80
2022/05/20 12:37:40;;;;;;;;;;;23.90;99.90;;;;;;4974984;28;20321;-80
2022/05/20 12:40:15;;;;;;;;;;;24.20;99.90;;;;;;4976355;28;19922;-80
2022/05/20 12:42:44;;;;;;;;;;;24.40;99.90;;;;;;4976033;28;19925;-80
2022/05/20 12:45:10;;;;;;;;;;;24.60;99.90;;;;;;4976204;28;20417;-80
2022/05/20 12:47:37;;;;;;;;;;;25.10;99.90;;;;;;4975221;28;19960;-82
2022/05/20 12:50:20;;;;;;;;;;;25.40;99.90;;;;;;4978561;28;19910;-81
2022/05/20 12:52:48;;;;;;;;;;;25.40;99.90;;;;;;4977194;28;19910;-81
2022/05/20 12:55:15;;;;;;;;;;;24.90;99.90;;;;;;4976454;28;19910;-83
2022/05/20 12:58:07;;;;;;;;;;;24.70;99.90;;;;;;4979470;28;19924;-81
2022/05/20 13:00:32;;;;;;;;;;;24.40;99.90;;;;;;4955912;28;19914;-81
2022/05/20 13:03:00;;;;;;;;;;;24.60;99.90;;;;;;4974532;28;20051;-81
2022/05/20 13:05:35;;;;;;;;;;;24.80;99.50;;;;;;4978131;28;20271;-81
2022/05/20 13:08:02;;;;;;;;;;;25.20;99.60;;;;;;4978403;28;20305;-81
2022/05/20 13:10:28;;;;;;;;;;;25.10;97.70;;;;;;4978712;28;19911;-81
2022/05/20 13:12:57;;;;;;;;;;;24.90;97.80;;;;;;4983191;28;19913;-81
2022/05/20 13:15:23;;;;;;;;;;;25.00;97.60;;;;;;4980892;28;19910;-81
2022/05/20 13:18:02;;;;;;;;;;;24.60;98.30;;;;;;4980473;28;19914;-81
2022/05/20 13:20:29;;;;;;;;;;;24.60;98.60;;;;;;4979680;28;20186;-80
2022/05/20 13:22:57;;;;;;;;;;;24.50;98.70;;;;;;4980751;28;19910;-80
2022/05/20 13:25:23;;;;;;;;;;;25.00;99.60;;;;;;4980780;28;19953;-81
2022/05/20 13:27:48;;;;;;;;;;;25.40;99.00;;;;;;4977582;28;19933;-81
2022/05/20 13:30:18;;;;;;;;;;;25.40;99.90;;;;;;4977772;28;20397;-81
2022/05/20 13:32:43;;;;;;;;;;;26.00;99.00;;;;;;4977926;28;19973;-81
2022/05/20 13:35:09;;;;;;;;;;;25.80;99.20;;;;;;4978223;28;19949;-81
2022/05/20 13:37:39;;;;;;;;;;;25.80;99.10;;;;;;4979306;28;19965;-81
2022/05/20 13:40:13;;;;;;;;;;;26.40;98.30;;;;;;4978058;28;19922;-81
2022/05/20 13:42:40;;;;;;;;;;;26.70;98.20;;;;;;4980797;28;19906;-81
2022/05/20 13:45:07;;;;;;;;;;;27.00;96.80;;;;;;4961834;28;19910;-81
2022/05/20 13:50:18;;;;;;;;;;;28.10;97.10;;;;;;4981527;28;19957;-81
2022/05/20 13:52:44;;;;;;;;;;;29.00;96.50;;;;;;4981274;28;19906;-81
2022/05/20 13:55:12;;;;;;;;;;;28.70;95.60;;;;;;4978051;28;19921;-81
2022/05/20 13:57:40;;;;;;;;;;;29.10;94.40;;;;;;4982232;28;19925;-81
2022/05/20 14:00:10;;;;;;;;;;;30.30;93.80;;;;;;4979272;28;19910;-81
2022/05/20 14:02:37;;;;;;;;;;;31.10;93.30;;;;;;4984621;28;19906;-81
2022/05/20 14:05:13;;;;;;;;;;;31.00;93.10;;;;;;4986178;28;19997;-82
2022/05/20 14:07:43;;;;;;;;;;;31.80;92.00;;;;;;4982651;28;19906;-81
2022/05/20 14:10:14;;;;;;;;;;;32.40;91.80;;;;;;4979577;28;19958;-81
2022/05/20 14:12:44;;;;;;;;;;;33.10;91.40;;;;;;4983106;28;19906;-81
2022/05/20 14:15:14;;;;;;;;;;;32.30;91.70;;;;;;4985981;28;19913;-81
2022/05/20 14:17:42;;;;;;;;;;;32.40;91.30;;;;;;4978014;28;20385;-81
2022/05/20 14:20:11;;;;;;;;;;;30.90;92.60;;;;;;4977126;28;20033;-81
2022/05/20 14:22:38;;;;;;;;;;;31.80;91.90;;;;;;4976523;28;20115;-81
2022/05/20 14:25:14;;;;;;;;;;;31.50;91.40;;;;;;4976638;28;20337;-81
2022/05/20 14:27:45;;;;;;;;;;;31.80;91.40;;;;;;4977048;28;20388;-80
2022/05/20 14:30:17;;;;;;;;;;;32.00;91.20;;;;;;4986514;28;19934;-81
2022/05/20 14:32:42;;;;;;;;;;;32.70;90.60;;;;;;4982081;28;19910;-81
2022/05/20 14:35:09;;;;;;;;;;;32.10;90.80;;;;;;4984158;28;19969;-80
2022/05/20 14:37:35;;;;;;;;;;;32.70;90.10;;;;;;4983767;28;19918;-81
2022/05/20 14:40:08;;;;;;;;;;;33.90;89.80;;;;;;4981768;28;19925;-81
2022/05/20 14:42:38;;;;;;;;;;;33.00;89.50;;;;;;4984228;28;20006;-81
2022/05/20 14:45:06;;;;;;;;;;;33.10;89.00;;;;;;4984713;28;19906;-83
2022/05/20 14:47:37;;;;;;;;;;;34.30;87.90;;;;;;4985430;28;19906;-83
2022/05/20 14:50:05;;;;;;;;;;;34.40;87.20;;;;;;4983213;28;19937;-82
2022/05/20 14:52:34;;;;;;;;;;;34.60;85.80;;;;;;4964883;28;20263;-82
2022/05/20 14:55:00;;;;;;;;;;;34.40;85.70;;;;;;4959747;28;19917;-83
2022/05/20 14:57:28;;;;;;;;;;;33.60;85.90;;;;;;4976563;28;19944;-84
2022/05/20 15:00:05;;;;;;;;;;;33.90;86.00;;;;;;4978433;28;19910;-84
2022/05/20 15:02:30;;;;;;;;;;;34.20;85.00;;;;;;4975797;28;19914;-84
2022/05/20 15:04:56;;;;;;;;;;;33.40;84.40;;;;;;4976351;28;19957;-84
2022/05/20 15:07:21;;;;;;;;;;;33.50;85.40;;;;;;4975886;28;19954;-84